Time;durP1;ratioP1;P1;durP2;ratioP2;P2;SDS_P1;SDS_P2;PMS_P1;PMS_P2;Temp;Humidity;BMP_temperature;BMP_pressure;BME280_temperature;BME280_humidity;BME280_pressure;Samples;Min_cycle;Max_cycle;Signal;HPM_P1;HPM_P2
2022/07/23 00:01:47;;;;;;;5.60;5.13;;;21.90;99.90;;;;;;6164179;23;20009;-78
2022/07/23 00:04:15;;;;;;;5.50;5.00;;;21.80;99.90;;;;;;6155774;23;20557;-79
2022/07/23 00:06:43;;;;;;;10.43;6.28;;;21.80;99.90;;;;;;6161965;23;20048;-80
2022/07/23 00:09:10;;;;;;;7.03;6.28;;;21.80;99.90;;;;;;6164698;23;20021;-79
2022/07/23 00:11:38;;;;;;;6.30;5.28;;;21.70;99.90;;;;;;6158492;23;20029;-79
2022/07/23 00:14:06;;;;;;;8.38;6.20;;;21.70;99.90;;;;;;6129083;23;20013;-79
2022/07/23 00:16:34;;;;;;;6.80;6.03;;;21.60;99.90;;;;;;6154666;23;20014;-78
2022/07/23 00:19:03;;;;;;;34.92;6.97;;;21.60;99.90;;;;;;6157290;23;20018;-79
2022/07/23 00:21:31;;;;;;;8.35;7.45;;;21.60;99.90;;;;;;6164195;23;20013;-78
2022/07/23 00:23:59;;;;;;;6.47;5.40;;;21.60;99.90;;;;;;6157019;23;20025;-78
2022/07/23 00:26:27;;;;;;;7.82;6.03;;;21.50;99.90;;;;;;6161706;23;20021;-78
2022/07/23 00:28:54;;;;;;;7.18;6.20;;;21.50;99.90;;;;;;6128402;23;20333;-78
2022/07/23 00:31:22;;;;;;;10.43;5.85;;;21.50;99.90;;;;;;6157128;23;20357;-78
2022/07/23 00:33:50;;;;;;;8.38;5.03;;;21.50;99.90;;;;;;6164458;23;20017;-78
2022/07/23 00:36:18;;;;;;;10.35;4.75;;;21.40;99.90;;;;;;6128694;23;20036;-78
2022/07/23 00:38:46;;;;;;;7.45;6.78;;;21.40;99.90;;;;;;6160025;23;20021;-78
2022/07/23 00:41:13;;;;;;;5.43;4.75;;;21.30;99.90;;;;;;6162832;23;20021;-78
2022/07/23 00:43:41;;;;;;;8.57;5.60;;;21.30;99.90;;;;;;6127402;23;20029;-78
2022/07/23 00:46:09;;;;;;;11.82;7.75;;;21.10;99.90;;;;;;6161845;23;20017;-78
2022/07/23 00:48:36;;;;;;;7.38;5.85;;;21.10;99.90;;;;;;6126222;23;20029;-78
2022/07/23 00:51:05;;;;;;;7.25;6.38;;;21.00;99.90;;;;;;6159604;23;20033;-78
2022/07/23 00:53:33;;;;;;;34.72;8.60;;;21.00;99.90;;;;;;6163302;23;20021;-78
2022/07/23 00:56:00;;;;;;;9.18;7.32;;;20.90;99.90;;;;;;6155431;23;20036;-78
2022/07/23 00:58:28;;;;;;;10.07;6.65;;;20.80;99.90;;;;;;6162387;23;20468;-78
2022/07/23 01:00:56;;;;;;;9.75;6.90;;;20.80;99.90;;;;;;6163664;23;20333;-78
2022/07/23 01:03:24;;;;;;;9.55;5.35;;;20.70;99.90;;;;;;6155024;23;20466;-78
2022/07/23 01:05:52;;;;;;;10.07;7.78;;;20.60;99.90;;;;;;6164168;23;20017;-78
2022/07/23 01:08:20;;;;;;;8.25;7.43;;;20.60;99.90;;;;;;6153017;23;20033;-78
2022/07/23 01:10:51;;;;;;;7.43;6.28;;;20.60;99.90;;;;;;6158217;23;20022;-78
2022/07/23 01:13:19;;;;;;;9.30;8.25;;;20.60;99.90;;;;;;6163387;23;20040;-79
2022/07/23 01:15:47;;;;;;;8.13;7.28;;;20.50;99.90;;;;;;6154608;23;20342;-79
2022/07/23 01:18:15;;;;;;;7.10;6.40;;;20.40;99.90;;;;;;6159211;23;20318;-79
2022/07/23 01:20:43;;;;;;;7.03;6.28;;;20.30;99.90;;;;;;6162580;23;20010;-80
2022/07/23 01:23:10;;;;;;;9.20;6.95;;;20.30;99.90;;;;;;6157192;23;20029;-79
2022/07/23 01:25:54;;;;;;;7.80;6.95;;;20.30;99.90;;;;;;6161666;23;20021;-80
2022/07/23 01:28:24;;;;;;;9.13;7.90;;;20.20;99.90;;;;;;6152383;23;20026;-79
2022/07/23 01:30:52;;;;;;;9.13;7.63;;;20.20;99.90;;;;;;6159369;23;20026;-79
2022/07/23 01:33:20;;;;;;;9.18;8.25;;;20.30;99.90;;;;;;6161351;23;20013;-80
2022/07/23 01:35:47;;;;;;;6.68;6.05;;;20.20;99.90;;;;;;6155901;23;20026;-80
2022/07/23 01:38:20;;;;;;;11.48;6.82;;;20.10;99.90;;;;;;6156741;23;20020;-78
2022/07/23 01:40:48;;;;;;;5.57;5.03;;;20.10;99.90;;;;;;6160745;23;20406;-79
2022/07/23 01:43:22;;;;;;;7.90;5.43;;;20.10;99.90;;;;;;6156494;23;20811;-77
2022/07/23 01:45:55;;;;;;;12.02;6.57;;;20.40;99.90;;;;;;6150270;23;20480;-77
2022/07/23 01:48:25;;;;;;;8.90;6.30;;;20.90;99.90;;;;;;6150600;23;20032;-77
2022/07/23 01:51:17;;;;;;;7.38;6.00;;;21.30;99.90;;;;;;6152915;23;20030;-77
2022/07/23 01:53:53;;;;;;;5.90;5.20;;;21.60;99.90;;;;;;6134502;23;20021;-82
2022/07/23 01:56:22;;;;;;;8.52;6.50;;;21.70;99.90;;;;;;6152424;23;20029;-84
2022/07/23 01:58:49;;;;;;;9.98;6.10;;;21.80;99.90;;;;;;6157814;23;20022;-79
2022/07/23 02:01:18;;;;;;;9.38;5.32;;;22.00;99.90;;;;;;6161185;23;20010;-78
2022/07/23 02:03:46;;;;;;;13.82;7.72;;;22.00;99.90;;;;;;6152499;23;20437;-81
2022/07/23 02:06:13;;;;;;;10.55;5.72;;;21.90;99.90;;;;;;6159702;23;20014;-78
2022/07/23 02:08:41;;;;;;;4.57;4.13;;;21.70;99.90;;;;;;6161032;23;20020;-77
2022/07/23 02:11:09;;;;;;;15.90;5.10;;;21.60;99.90;;;;;;6158034;23;20580;-78
2022/07/23 02:13:37;;;;;;;5.90;3.92;;;21.60;99.90;;;;;;6160315;23;20017;-83
2022/07/23 02:16:04;;;;;;;11.05;4.00;;;21.50;99.90;;;;;;6154096;23;20028;-80
2022/07/23 02:18:33;;;;;;;5.25;3.42;;;21.50;99.90;;;;;;6131458;23;20017;-77
2022/07/23 02:21:00;;;;;;;7.47;4.45;;;21.50;99.90;;;;;;6162079;23;20453;-85
2022/07/23 02:23:28;;;;;;;5.88;2.45;;;21.50;99.90;;;;;;6147281;23;20330;-79
2022/07/23 02:25:56;;;;;;;4.60;2.72;;;21.40;99.90;;;;;;6161422;23;20013;-77
2022/07/23 02:28:24;;;;;;;3.17;2.88;;;21.50;99.90;;;;;;6125415;23;20480;-78
2022/07/23 02:30:51;;;;;;;5.88;2.67;;;21.50;99.90;;;;;;6156682;23;20022;-78
2022/07/23 02:33:19;;;;;;;5.88;3.15;;;21.50;99.90;;;;;;6161091;23;20013;-78
2022/07/23 02:35:47;;;;;;;3.47;2.78;;;21.40;99.90;;;;;;6153819;23;20025;-78
2022/07/23 02:38:15;;;;;;;4.10;2.97;;;21.30;99.90;;;;;;6159662;23;20515;-78
2022/07/23 02:40:43;;;;;;;3.88;2.90;;;21.30;99.90;;;;;;6137620;23;20014;-83
2022/07/23 02:43:11;;;;;;;2.13;2.00;;;21.20;99.90;;;;;;6156628;23;20017;-79
2022/07/23 02:45:39;;;;;;;2.13;1.92;;;21.20;99.90;;;;;;6138849;23;20017;-81
2022/07/23 02:48:09;;;;;;;4.05;3.65;;;21.10;99.90;;;;;;6129960;23;20021;-80
2022/07/23 02:50:36;;;;;;;2.55;1.98;;;21.10;99.90;;;;;;6161184;23;20022;-80
2022/07/23 02:53:05;;;;;;;5.93;1.98;;;21.10;99.90;;;;;;6112873;23;20013;-79
2022/07/23 02:55:32;;;;;;;1.58;1.40;;;21.10;99.90;;;;;;6157235;23;20040;-77
2022/07/23 02:58:03;;;;;;;6.30;1.60;;;21.00;99.90;;;;;;6162902;23;20013;-78
2022/07/23 03:00:30;;;;;;;3.70;2.20;;;21.00;99.90;;;;;;6155199;23;20021;-79
2022/07/23 03:02:58;;;;;;;2.85;2.45;;;21.00;99.90;;;;;;6135092;23;20021;-79
2022/07/23 03:05:26;;;;;;;2.40;2.20;;;21.00;99.90;;;;;;6161205;23;20014;-81
2022/07/23 03:07:53;;;;;;;1.95;1.33;;;20.90;99.90;;;;;;6131704;23;20022;-80
2022/07/23 03:10:21;;;;;;;1.30;1.20;;;20.90;99.90;;;;;;6160069;23;20460;-76
2022/07/23 03:12:49;;;;;;;1.42;1.33;;;20.80;99.90;;;;;;6163762;23;20449;-76
2022/07/23 03:15:17;;;;;;;5.40;1.88;;;20.60;99.90;;;;;;6156763;23;20028;-76
2022/07/23 03:17:46;;;;;;;2.70;1.27;;;20.50;99.90;;;;;;6161853;23;20324;-78
2022/07/23 03:20:13;;;;;;;1.17;1.13;;;20.40;99.90;;;;;;6151501;23;20032;-76
2022/07/23 03:22:41;;;;;;;1.92;1.67;;;20.20;99.90;;;;;;6157844;23;20028;-76
2022/07/23 03:25:09;;;;;;;2.28;1.58;;;20.10;99.90;;;;;;6162576;23;20018;-76
2022/07/23 03:27:37;;;;;;;4.25;2.85;;;20.10;99.90;;;;;;6154447;23;20029;-76
2022/07/23 03:30:06;;;;;;;2.38;2.17;;;20.00;99.90;;;;;;6161494;23;20020;-76
2022/07/23 03:32:34;;;;;;;3.83;2.50;;;20.00;99.90;;;;;;6152780;23;20034;-77
2022/07/23 03:35:02;;;;;;;3.72;1.88;;;20.00;99.90;;;;;;6159963;23;20029;-77
2022/07/23 03:37:30;;;;;;;2.90;1.40;;;20.10;99.90;;;;;;6161936;23;20017;-76
2022/07/23 03:39:59;;;;;;;1.92;1.73;;;20.20;99.90;;;;;;6153113;23;20037;-76
2022/07/23 03:42:27;;;;;;;1.90;1.65;;;20.10;99.90;;;;;;6160013;23;20313;-76
2022/07/23 03:44:55;;;;;;;3.38;1.63;;;20.10;99.90;;;;;;6161070;23;20013;-76
2022/07/23 03:47:23;;;;;;;5.85;2.22;;;20.10;99.90;;;;;;6130975;23;20032;-76
2022/07/23 03:49:51;;;;;;;3.08;1.45;;;20.00;99.90;;;;;;6134151;23;20010;-76
2022/07/23 03:52:19;;;;;;;1.65;1.55;;;20.00;99.90;;;;;;6150834;23;20353;-76
2022/07/23 03:54:46;;;;;;;2.13;1.85;;;19.90;99.90;;;;;;6159394;23;20025;-76
2022/07/23 03:57:14;;;;;;;3.58;1.70;;;20.00;99.90;;;;;;6162743;23;20013;-76
2022/07/23 03:59:42;;;;;;;1.92;1.83;;;20.00;99.90;;;;;;6127531;23;20052;-76
2022/07/23 04:02:10;;;;;;;2.58;1.95;;;19.90;99.90;;;;;;6161072;23;20025;-76
2022/07/23 04:04:38;;;;;;;2.20;1.92;;;19.80;99.90;;;;;;6149920;23;20349;-76
2022/07/23 04:07:07;;;;;;;3.72;2.63;;;19.80;99.90;;;;;;6155772;23;20241;-76
2022/07/23 04:09:35;;;;;;;2.92;2.30;;;19.90;99.90;;;;;;6160155;23;20024;-76
2022/07/23 04:12:03;;;;;;;2.97;2.78;;;19.80;99.90;;;;;;6153120;23;20025;-77
2022/07/23 04:14:31;;;;;;;3.72;3.33;;;19.90;99.90;;;;;;6135196;23;20036;-77
2022/07/23 04:16:59;;;;;;;2.80;2.55;;;20.00;99.90;;;;;;6161096;23;20464;-76
2022/07/23 04:19:27;;;;;;;11.63;3.83;;;19.90;99.90;;;;;;6152652;23;20033;-77
2022/07/23 04:22:01;;;;;;;3.88;2.63;;;19.90;99.90;;;;;;6135752;23;20013;-76
2022/07/23 04:24:31;;;;;;;5.55;3.13;;;19.90;99.90;;;;;;6151192;23;20389;-77
2022/07/23 04:26:58;;;;;;;2.65;2.45;;;19.80;99.90;;;;;;6156653;23;20026;-79
2022/07/23 04:29:26;;;;;;;3.38;3.08;;;19.90;99.90;;;;;;6161733;23;20018;-78
2022/07/23 04:31:54;;;;;;;3.47;2.70;;;19.90;99.90;;;;;;6129349;23;20022;-77
2022/07/23 04:34:22;;;;;;;3.53;3.22;;;19.80;99.90;;;;;;6161477;23;20018;-76
2022/07/23 04:36:50;;;;;;;3.83;3.42;;;19.80;99.90;;;;;;6161577;23;20013;-76
2022/07/23 04:39:18;;;;;;;4.88;2.75;;;19.50;99.90;;;;;;6150940;23;20449;-77
2022/07/23 04:41:46;;;;;;;4.85;3.58;;;19.50;99.90;;;;;;6161740;23;20013;-78
2022/07/23 04:44:15;;;;;;;5.18;4.70;;;19.60;99.90;;;;;;6151719;23;20357;-77
2022/07/23 04:46:42;;;;;;;3.40;3.15;;;19.60;99.90;;;;;;6157263;23;20327;-76
2022/07/23 04:49:10;;;;;;;5.68;2.83;;;19.70;99.90;;;;;;6160870;23;20017;-77
2022/07/23 04:51:38;;;;;;;3.03;2.75;;;19.80;99.90;;;;;;6129197;23;20481;-77
2022/07/23 04:54:06;;;;;;;5.07;4.18;;;19.80;99.90;;;;;;6126687;23;20021;-77
2022/07/23 04:56:34;;;;;;;4.43;3.67;;;19.90;99.90;;;;;;6148008;23;20026;-77
2022/07/23 04:59:02;;;;;;;3.85;3.40;;;19.90;99.90;;;;;;6156778;23;20018;-77
2022/07/23 05:01:31;;;;;;;4.57;3.42;;;19.90;99.90;;;;;;6162464;23;20020;-77
2022/07/23 05:03:59;;;;;;;3.17;2.83;;;19.90;99.90;;;;;;6153122;23;20068;-77
2022/07/23 05:06:31;;;;;;;3.90;3.58;;;19.90;99.90;;;;;;6149195;23;20472;-77
2022/07/23 05:08:59;;;;;;;3.72;3.10;;;19.90;99.90;;;;;;6160155;23;20044;-77
2022/07/23 05:11:27;;;;;;;11.32;4.38;;;20.00;99.90;;;;;;6125542;23;20025;-77
2022/07/23 05:13:56;;;;;;;5.40;4.25;;;20.00;99.90;;;;;;6126743;23;20024;-77
2022/07/23 05:16:24;;;;;;;4.65;4.25;;;20.00;99.90;;;;;;6151324;23;20021;-77
2022/07/23 05:18:53;;;;;;;4.05;3.63;;;20.00;99.90;;;;;;6154367;23;20022;-77
2022/07/23 05:21:21;;;;;;;6.15;4.70;;;20.00;99.90;;;;;;6159986;23;20021;-77
2022/07/23 05:23:49;;;;;;;4.97;4.47;;;20.00;99.90;;;;;;6153256;23;20046;-77
2022/07/23 05:26:17;;;;;;;3.78;2.70;;;20.00;99.90;;;;;;6110308;23;20028;-77
2022/07/23 05:28:49;;;;;;;28.70;3.83;;;20.00;99.90;;;;;;6160364;23;20017;-77
2022/07/23 05:31:18;;;;;;;5.20;3.53;;;20.00;99.90;;;;;;6131304;23;20657;-77
2022/07/23 05:33:47;;;;;;;2.88;2.67;;;20.00;99.90;;;;;;6160943;23;20018;-77
2022/07/23 05:36:14;;;;;;;4.40;3.55;;;20.00;99.90;;;;;;6151249;23;20024;-77
2022/07/23 05:39:03;;;;;;;5.25;3.28;;;20.00;99.90;;;;;;6156272;23;20069;-77
2022/07/23 05:41:34;;;;;;;3.35;3.05;;;20.10;99.90;;;;;;6160904;23;20035;-76
2022/07/23 05:44:03;;;;;;;5.25;3.13;;;20.20;99.90;;;;;;6127940;23;20022;-77
2022/07/23 05:46:33;;;;;;;4.20;3.80;;;20.20;99.90;;;;;;6158252;23;20381;-77
2022/07/23 05:49:05;;;;;;;5.68;3.88;;;20.20;99.90;;;;;;6160104;23;20064;-78
2022/07/23 05:51:52;;;;;;;4.60;3.05;;;20.20;99.90;;;;;;6152029;23;20041;-77
2022/07/23 05:54:28;;;;;;;4.93;4.05;;;20.30;99.90;;;;;;6134051;23;20638;-77
2022/07/23 05:56:56;;;;;;;4.07;3.75;;;20.20;99.90;;;;;;6160303;23;20021;-77
2022/07/23 05:59:24;;;;;;;7.38;4.25;;;20.30;99.90;;;;;;6155124;23;20033;-77
2022/07/23 06:01:51;;;;;;;4.80;3.05;;;20.20;99.90;;;;;;6160580;23;20036;-77
2022/07/23 06:04:19;;;;;;;4.57;3.40;;;20.20;99.90;;;;;;6152741;23;20032;-77
2022/07/23 06:07:02;;;;;;;4.70;4.05;;;20.20;99.90;;;;;;6148939;23;20018;-77
2022/07/23 06:09:29;;;;;;;3.85;3.33;;;20.10;99.90;;;;;;6159869;23;20016;-77
2022/07/23 06:11:57;;;;;;;8.32;4.57;;;20.00;99.90;;;;;;6152496;23;20032;-77
2022/07/23 06:14:25;;;;;;;4.57;4.07;;;19.90;99.90;;;;;;6125444;23;20021;-77
2022/07/23 06:16:56;;;;;;;4.85;3.80;;;19.80;99.90;;;;;;6159997;23;20013;-77
2022/07/23 06:19:25;;;;;;;7.05;5.57;;;19.80;99.90;;;;;;6151777;23;20642;-77
2022/07/23 06:21:53;;;;;;;6.25;5.03;;;19.90;99.90;;;;;;6134713;23;20017;-77
2022/07/23 06:24:21;;;;;;;9.38;5.13;;;20.00;99.90;;;;;;6101125;23;20026;-77
2022/07/23 06:26:50;;;;;;;5.45;4.63;;;20.10;99.90;;;;;;6156907;23;20457;-77
2022/07/23 06:29:17;;;;;;;5.72;5.10;;;20.20;99.90;;;;;;6160345;23;20037;-77
2022/07/23 06:31:45;;;;;;;23.88;5.97;;;20.20;99.90;;;;;;6153607;23;20029;-78
2022/07/23 06:34:14;;;;;;;7.18;4.82;;;20.30;99.90;;;;;;6159565;23;20013;-77
2022/07/23 06:36:42;;;;;;;5.38;4.88;;;20.30;99.90;;;;;;6135289;23;20013;-78
2022/07/23 06:39:10;;;;;;;7.18;5.18;;;20.40;99.90;;;;;;6154959;23;20021;-77
2022/07/23 06:41:38;;;;;;;7.35;5.38;;;20.40;99.90;;;;;;6125619;23;20029;-77
2022/07/23 06:44:06;;;;;;;5.35;4.45;;;20.50;99.90;;;;;;6151975;23;20029;-77
2022/07/23 06:46:35;;;;;;;4.32;3.95;;;20.50;99.90;;;;;;6131445;23;20025;-77
2022/07/23 06:49:04;;;;;;;6.43;5.18;;;20.50;99.90;;;;;;6161153;23;20014;-77
2022/07/23 06:51:33;;;;;;;7.70;6.75;;;20.60;99.90;;;;;;6153196;23;20025;-77
2022/07/23 06:54:02;;;;;;;4.88;4.43;;;20.70;99.90;;;;;;6161733;23;20009;-77
2022/07/23 06:56:30;;;;;;;6.57;5.90;;;20.70;99.90;;;;;;6151404;23;20033;-77
2022/07/23 06:58:58;;;;;;;5.78;5.15;;;20.70;99.90;;;;;;6148826;23;20025;-77
2022/07/23 07:01:27;;;;;;;6.30;5.00;;;20.70;99.90;;;;;;6159774;23;20024;-77
2022/07/23 07:03:55;;;;;;;6.72;4.90;;;20.70;99.90;;;;;;6154318;23;20032;-77
2022/07/23 07:06:22;;;;;;;6.15;5.55;;;20.60;99.90;;;;;;6158660;23;20018;-77
2022/07/23 07:08:51;;;;;;;7.15;4.93;;;20.50;99.90;;;;;;6161135;23;20020;-77
2022/07/23 07:11:19;;;;;;;8.88;5.45;;;20.50;99.90;;;;;;6156495;23;20057;-77
2022/07/23 07:13:47;;;;;;;6.10;5.53;;;20.50;99.90;;;;;;6161787;23;20010;-77
2022/07/23 07:16:14;;;;;;;4.03;3.58;;;20.40;99.90;;;;;;6149437;23;20025;-77
2022/07/23 07:18:42;;;;;;;6.28;4.90;;;20.40;99.90;;;;;;6155881;23;20014;-77
2022/07/23 07:21:10;;;;;;;5.90;4.65;;;20.30;99.90;;;;;;6161398;23;20018;-77
2022/07/23 07:23:38;;;;;;;5.07;4.28;;;20.40;99.90;;;;;;6154578;23;20046;-79
2022/07/23 07:26:06;;;;;;;5.95;5.30;;;20.40;99.90;;;;;;6122670;23;20017;-76
2022/07/23 07:28:33;;;;;;;5.15;4.65;;;20.40;99.90;;;;;;6149552;23;20033;-76
2022/07/23 07:31:01;;;;;;;5.43;4.90;;;20.50;99.90;;;;;;6158951;23;20025;-77
2022/07/23 07:33:30;;;;;;;5.22;4.15;;;20.50;99.90;;;;;;6163017;23;20017;-76
2022/07/23 07:35:58;;;;;;;5.57;5.05;;;20.60;99.90;;;;;;6155367;23;20029;-77
2022/07/23 07:38:26;;;;;;;5.38;4.38;;;20.80;99.90;;;;;;6160651;23;20021;-77
2022/07/23 07:40:54;;;;;;;4.97;4.50;;;20.80;99.90;;;;;;6163201;23;20017;-77
2022/07/23 07:43:22;;;;;;;5.43;3.63;;;21.00;99.90;;;;;;6157022;23;20030;-77
2022/07/23 07:45:50;;;;;;;10.23;5.78;;;21.10;99.90;;;;;;6162513;23;20024;-77
2022/07/23 07:48:18;;;;;;;6.28;4.68;;;21.20;99.90;;;;;;6153242;23;20090;-77
2022/07/23 07:50:45;;;;;;;6.30;4.50;;;21.30;99.90;;;;;;6160514;23;20018;-78
2022/07/23 07:53:16;;;;;;;4.10;3.60;;;21.40;99.90;;;;;;6162876;23;20021;-78
2022/07/23 07:55:43;;;;;;;4.57;4.18;;;21.50;99.90;;;;;;6154078;23;20029;-78
2022/07/23 07:58:18;;;;;;;5.05;4.55;;;21.50;99.90;;;;;;6161834;23;20056;-78
2022/07/23 08:00:46;;;;;;;4.75;4.22;;;21.50;99.90;;;;;;6163311;23;20437;-78
2022/07/23 08:03:14;;;;;;;5.20;4.05;;;21.50;99.90;;;;;;6157881;23;20032;-78
2022/07/23 08:05:42;;;;;;;3.97;3.50;;;21.40;99.90;;;;;;6163658;23;20009;-77
2022/07/23 08:08:14;;;;;;;4.32;3.92;;;21.30;99.90;;;;;;6153219;23;20025;-78
2022/07/23 08:10:44;;;;;;;4.15;3.60;;;21.20;99.90;;;;;;6152588;23;20021;-78
2022/07/23 08:13:16;;;;;;;6.63;4.80;;;21.10;99.90;;;;;;6162794;23;20014;-77
2022/07/23 08:15:44;;;;;;;5.10;4.18;;;21.10;99.90;;;;;;6155973;23;20453;-77
2022/07/23 08:18:13;;;;;;;4.57;4.18;;;21.10;99.90;;;;;;6158851;23;20017;-77
2022/07/23 08:20:41;;;;;;;4.63;4.22;;;21.00;99.90;;;;;;6162596;23;20013;-76
2022/07/23 08:23:09;;;;;;;7.20;4.53;;;21.10;99.90;;;;;;6157481;23;20029;-76
2022/07/23 08:25:41;;;;;;;11.15;4.13;;;21.10;99.90;;;;;;6162878;23;20025;-77
2022/07/23 08:28:12;;;;;;;5.15;4.05;;;21.10;99.90;;;;;;6152848;23;20027;-77
2022/07/23 08:30:41;;;;;;;5.95;4.95;;;21.20;99.90;;;;;;6160007;23;20018;-76
2022/07/23 08:33:12;;;;;;;9.52;4.00;;;21.20;99.90;;;;;;6162480;23;20025;-76
2022/07/23 08:35:59;;;;;;;7.65;5.57;;;21.20;99.90;;;;;;6154793;23;20334;-76
2022/07/23 08:38:28;;;;;;;5.40;4.57;;;21.10;99.90;;;;;;6159437;23;20369;-77
2022/07/23 08:40:59;;;;;;;4.63;4.22;;;21.10;99.90;;;;;;6162413;23;20021;-76
2022/07/23 08:43:30;;;;;;;5.85;4.57;;;21.10;99.90;;;;;;6156324;23;20028;-76
2022/07/23 08:46:00;;;;;;;5.40;4.68;;;21.10;99.90;;;;;;6162495;23;20017;-76
2022/07/23 08:48:34;;;;;;;6.73;4.90;;;21.10;99.90;;;;;;6151614;23;20033;-77
2022/07/23 08:51:04;;;;;;;6.93;4.80;;;21.10;99.90;;;;;;6158141;23;20293;-77
2022/07/23 08:53:35;;;;;;;8.18;4.85;;;21.10;99.90;;;;;;6161708;23;20016;-76
2022/07/23 08:56:05;;;;;;;6.75;5.60;;;21.20;99.90;;;;;;6152256;23;20357;-76
2022/07/23 08:58:38;;;;;;;7.22;4.97;;;21.10;99.90;;;;;;6151468;23;20021;-77
2022/07/23 09:01:06;;;;;;;6.03;5.07;;;21.10;99.90;;;;;;6162412;23;20017;-77
2022/07/23 09:03:38;;;;;;;4.93;4.20;;;21.10;99.90;;;;;;6151853;23;20018;-76
2022/07/23 09:06:06;;;;;;;6.18;4.63;;;21.20;99.90;;;;;;6162421;23;20341;-77
2022/07/23 09:08:41;;;;;;;7.30;5.15;;;21.20;99.90;;;;;;6151749;23;20030;-77
2022/07/23 09:11:12;;;;;;;6.18;4.28;;;21.30;99.90;;;;;;6158198;23;20013;-77
2022/07/23 09:13:52;;;;;;;5.00;4.32;;;21.40;99.90;;;;;;6162719;23;20014;-77
2022/07/23 09:16:29;;;;;;;4.38;4.07;;;21.50;99.90;;;;;;6152504;23;20035;-77
2022/07/23 09:19:05;;;;;;;6.55;4.78;;;21.60;99.90;;;;;;6156181;23;20029;-77
2022/07/23 09:21:36;;;;;;;5.03;4.20;;;21.80;99.90;;;;;;6162616;23;20013;-77
2022/07/23 09:24:06;;;;;;;5.15;4.50;;;21.80;99.90;;;;;;6154620;23;20472;-77
2022/07/23 09:26:39;;;;;;;8.18;5.70;;;21.90;99.90;;;;;;6160043;23;20033;-77
2022/07/23 09:29:27;;;;;;;5.47;4.30;;;21.80;99.90;;;;;;6162503;23;20456;-77
2022/07/23 09:31:56;;;;;;;6.72;5.10;;;21.80;99.90;;;;;;6153937;23;20048;-76
2022/07/23 09:34:26;;;;;;;14.70;6.40;;;21.80;99.90;;;;;;6161232;23;20334;-77
2022/07/23 09:36:57;;;;;;;4.70;4.20;;;21.70;99.90;;;;;;6151354;23;20018;-76
2022/07/23 09:39:32;;;;;;;6.70;4.32;;;21.70;99.90;;;;;;6156317;23;20030;-76
2022/07/23 09:42:18;;;;;;;5.57;5.05;;;21.70;99.90;;;;;;6162410;23;20021;-76
2022/07/23 09:44:51;;;;;;;5.78;4.07;;;21.80;99.90;;;;;;6158983;23;20030;-76
2022/07/23 09:47:22;;;;;;;8.80;4.40;;;21.80;99.90;;;;;;6156988;23;20026;-76
2022/07/23 09:50:12;;;;;;;4.43;4.03;;;21.90;99.90;;;;;;6162094;23;20515;-77
2022/07/23 09:52:46;;;;;;;5.50;4.53;;;21.90;99.90;;;;;;6150506;23;20041;-77
2022/07/23 09:55:16;;;;;;;4.90;4.07;;;22.00;99.90;;;;;;6158030;23;20038;-78
2022/07/23 09:57:46;;;;;;;6.47;5.80;;;22.00;99.90;;;;;;6162180;23;20013;-78
2022/07/23 10:00:14;;;;;;;14.60;4.88;;;22.00;99.90;;;;;;6154026;23;20357;-78
2022/07/23 10:02:45;;;;;;;5.47;4.57;;;22.00;99.90;;;;;;6159526;23;20034;-78
2022/07/23 10:05:30;;;;;;;4.80;4.40;;;22.00;99.90;;;;;;6163010;23;20024;-79
2022/07/23 10:08:18;;;;;;;9.38;4.55;;;22.10;99.90;;;;;;6153002;23;20029;-77
2022/07/23 10:11:05;;;;;;;9.93;5.97;;;22.20;99.90;;;;;;6157025;23;20021;-78
2022/07/23 10:13:52;;;;;;;4.28;3.88;;;22.30;99.90;;;;;;6160600;23;20017;-77
2022/07/23 10:16:25;;;;;;;8.52;5.03;;;22.30;99.90;;;;;;6126410;23;20038;-77
2022/07/23 10:18:54;;;;;;;6.80;5.22;;;22.50;99.90;;;;;;6156092;23;20025;-78
2022/07/23 10:21:49;;;;;;;58.85;8.85;;;22.80;99.90;;;;;;6161318;23;20024;-76
2022/07/23 10:24:50;;;;;;;9.82;4.03;;;23.00;99.90;;;;;;6153595;23;20032;-77
2022/07/23 10:27:33;;;;;;;4.95;4.25;;;23.20;99.90;;;;;;6158388;23;20029;-81
2022/07/23 10:30:06;;;;;;;71.47;10.35;;;23.30;99.90;;;;;;6163273;23;20021;-79
2022/07/23 10:32:43;;;;;;;14.30;4.65;;;23.50;99.90;;;;;;6153114;23;20345;-81
2022/07/23 10:35:44;;;;;;;5.53;5.03;;;23.60;99.90;;;;;;6157499;23;20465;-81
2022/07/23 10:38:19;;;;;;;5.65;5.15;;;23.60;99.90;;;;;;6125133;23;20021;-79
2022/07/23 10:40:56;;;;;;;5.63;4.68;;;23.50;99.90;;;;;;6158237;23;20052;-78
2022/07/23 10:43:24;;;;;;;5.38;4.90;;;23.70;99.90;;;;;;6130893;23;20029;-80
2022/07/23 10:45:53;;;;;;;5.22;4.65;;;24.00;99.90;;;;;;6126675;23;20317;-80
2022/07/23 10:48:26;;;;;;;7.50;4.93;;;24.50;99.90;;;;;;6127269;23;20037;-79
2022/07/23 10:51:08;;;;;;;5.95;4.57;;;24.80;99.90;;;;;;6133331;23;20013;-82
2022/07/23 10:53:50;;;;;;;12.00;4.55;;;25.00;99.90;;;;;;6163282;23;20471;-79
2022/07/23 10:56:49;;;;;;;4.93;4.53;;;25.10;99.90;;;;;;6153836;23;20037;-80
2022/07/23 10:59:21;;;;;;;5.13;4.63;;;25.20;99.90;;;;;;6157002;23;20029;-85
2022/07/23 11:01:49;;;;;;;7.50;4.05;;;24.90;99.90;;;;;;6138015;23;20091;-81
2022/07/23 11:04:18;;;;;;;4.07;3.67;;;24.80;99.90;;;;;;6154310;23;20040;-83
2022/07/23 11:06:49;;;;;;;5.78;5.18;;;24.70;99.90;;;;;;6163091;23;20017;-88
2022/07/23 11:09:38;;;;;;;3.78;3.47;;;24.80;99.90;;;;;;6165299;23;20014;-83
2022/07/23 11:12:21;;;;;;;4.18;3.78;;;24.90;99.90;;;;;;6158374;23;20445;-85
2022/07/23 11:15:08;;;;;;;5.00;3.30;;;25.00;99.90;;;;;;6161511;23;20017;-82
2022/07/23 11:18:01;;;;;;;6.70;4.75;;;24.90;99.90;;;;;;6166527;23;20009;-84
2022/07/23 11:20:28;;;;;;;4.15;3.75;;;24.90;99.90;;;;;;6111263;23;20029;-83
2022/07/23 11:22:59;;;;;;;5.35;4.70;;;24.80;99.90;;;;;;6107029;23;20022;-83
2022/07/23 11:25:29;;;;;;;6.47;4.65;;;24.80;99.90;;;;;;6136210;23;20014;-86
2022/07/23 11:28:10;;;;;;;4.70;3.83;;;24.90;99.90;;;;;;6128694;23;20470;-87
2022/07/23 11:30:40;;;;;;;5.07;4.13;;;25.00;99.90;;;;;;6100602;23;20025;-86
2022/07/23 11:33:07;;;;;;;8.70;4.82;;;25.30;99.90;;;;;;6136920;23;20253;-86
2022/07/23 11:35:38;;;;;;;3.95;3.60;;;25.50;99.90;;;;;;6130557;23;20022;-87
2022/07/23 11:38:16;;;;;;;5.00;4.25;;;25.50;99.90;;;;;;6100393;23;20018;-88
2022/07/23 11:40:54;;;;;;;4.28;3.88;;;25.30;99.90;;;;;;6125146;23;20346;-90
2022/07/23 11:43:27;;;;;;;6.70;4.75;;;25.20;99.90;;;;;;6123085;23;20026;-88
2022/07/23 11:46:00;;;;;;;4.53;3.85;;;25.10;99.90;;;;;;6135381;23;20018;-85
2022/07/23 11:48:30;;;;;;;4.40;4.00;;;25.00;99.90;;;;;;6126928;23;20033;-84
2022/07/23 11:51:03;;;;;;;7.88;4.50;;;24.80;99.90;;;;;;6132234;23;20025;-85
2022/07/23 11:53:33;;;;;;;4.90;3.65;;;24.70;99.90;;;;;;6135929;23;20021;-85
2022/07/23 11:56:04;;;;;;;;;;;24.60;99.90;;;;;;6128511;23;20030;-87
2022/07/23 11:58:32;;;;;;;5.72;3.60;;;24.40;99.90;;;;;;6133226;23;19924;-87
2022/07/23 12:01:00;;;;;;;4.57;3.92;;;24.30;99.90;;;;;;6127044;23;20018;-85
2022/07/23 12:03:28;;;;;;;5.22;4.72;;;24.20;99.90;;;;;;6130414;23;20022;-87
2022/07/23 12:05:57;;;;;;;7.40;4.47;;;24.10;99.90;;;;;;6136584;23;20036;-87
2022/07/23 12:08:47;;;;;;;4.28;3.90;;;24.10;99.90;;;;;;6126811;23;20029;-86
2022/07/23 12:12:00;;;;;;;11.82;4.35;;;23.90;99.90;;;;;;6085499;23;20030;-86
2022/07/23 12:14:30;;;;;;;4.63;4.20;;;23.90;99.90;;;;;;6123479;23;20021;-85
2022/07/23 12:17:50;;;;;;;8.15;5.43;;;23.80;99.90;;;;;;6098249;23;20013;-88
2022/07/23 12:24:57;;;;;;;9.88;3.28;;;23.80;99.90;;;;;;6082032;23;20554;-84
2022/07/23 12:27:28;;;;;;;8.20;3.83;;;23.80;99.90;;;;;;6082104;23;20030;-86
2022/07/23 12:30:28;;;;;;;16.38;4.47;;;23.90;99.90;;;;;;6091955;23;20022;-86
2022/07/23 12:33:03;;;;;;;6.25;5.65;;;23.90;99.90;;;;;;6132362;23;20057;-86
2022/07/23 12:35:40;;;;;;;4.38;3.95;;;24.00;99.90;;;;;;6099892;23;20029;-87
2022/07/23 12:38:20;;;;;;;5.07;4.57;;;24.00;99.90;;;;;;6120465;23;20718;-86
2022/07/23 12:40:51;;;;;;;8.35;4.00;;;24.10;99.90;;;;;;6128933;23;20492;-84
2022/07/23 12:43:30;;;;;;;4.68;4.28;;;24.00;99.90;;;;;;6125053;23;20642;-84
2022/07/23 12:46:11;;;;;;;5.35;4.25;;;23.90;99.90;;;;;;6128059;23;20025;-81
2022/07/23 12:48:54;;;;;;;16.60;5.03;;;23.90;99.90;;;;;;6116468;23;20362;-83
2022/07/23 12:54:28;;;;;;;8.48;4.78;;;23.70;99.90;;;;;;6065395;23;20025;-87
2022/07/23 12:56:56;;;;;;;6.57;5.97;;;23.60;99.90;;;;;;6130365;23;20014;-83
2022/07/23 12:59:31;;;;;;;5.47;3.95;;;23.50;99.90;;;;;;6120826;23;20781;-81
2022/07/23 13:01:59;;;;;;;4.75;4.25;;;23.50;99.90;;;;;;6129962;23;20018;-85
2022/07/23 13:04:27;;;;;;;7.03;4.45;;;23.50;99.90;;;;;;6120407;23;20033;-86
2022/07/23 13:06:58;;;;;;;5.13;4.72;;;23.30;99.90;;;;;;6126601;23;20022;-85
2022/07/23 13:09:29;;;;;;;6.25;5.43;;;23.30;99.90;;;;;;6132016;23;20014;-87
2022/07/23 13:12:00;;;;;;;5.13;4.18;;;23.30;99.90;;;;;;6124386;23;20026;-86
2022/07/23 13:14:28;;;;;;;6.80;4.28;;;23.30;99.90;;;;;;6130437;23;20018;-87